Time;durP1;ratioP1;P1;durP2;ratioP2;P2;SDS_P1;SDS_P2;PMS_P1;PMS_P2;Temp;Humidity;BMP_temperature;BMP_pressure;BME280_temperature;BME280_humidity;BME280_pressure;Samples;Min_cycle;Max_cycle;Signal;HPM_P1;HPM_P2
2022/01/24 00:01:49;;;;;;;2.95;2.75;;;15.90;73.10;;;;;;4176729;28;20492;-64
2022/01/24 00:04:11;;;;;;;2.80;2.60;;;15.90;73.30;;;;;;4159899;28;20073;-64
2022/01/24 00:06:35;;;;;;;3.17;2.97;;;15.90;73.30;;;;;;4159896;28;20041;-63
2022/01/24 00:08:57;;;;;;;3.08;2.88;;;15.90;73.40;;;;;;4159976;28;20041;-64
2022/01/24 00:11:24;;;;;;;3.03;2.72;;;15.90;73.40;;;;;;4159506;28;20049;-64
2022/01/24 00:16:59;;;;;;;3.28;3.05;;;15.80;73.60;;;;;;4175834;28;20045;-64
2022/01/24 00:27:21;;;;;;;3.15;2.95;;;15.70;74.00;;;;;;4192544;28;20115;-63
2022/01/24 00:29:43;;;;;;;3.33;3.03;;;15.70;74.60;;;;;;4192702;28;20131;-63
2022/01/24 00:32:05;;;;;;;2.88;2.60;;;15.70;74.20;;;;;;4176266;28;20462;-63
2022/01/24 00:34:28;;;;;;;3.80;3.50;;;15.70;74.10;;;;;;4176097;28;20057;-63
2022/01/24 00:36:51;;;;;;;3.15;2.95;;;15.70;74.20;;;;;;4176405;28;20505;-64
2022/01/24 00:39:15;;;;;;;2.88;2.67;;;15.70;74.20;;;;;;4176318;28;20122;-64
2022/01/24 00:41:46;;;;;;;2.67;2.55;;;15.70;74.20;;;;;;4176746;28;20049;-64
2022/01/24 00:44:32;;;;;;;2.95;2.65;;;15.60;74.20;;;;;;4192354;28;20113;-63
2022/01/24 00:46:58;;;;;;;3.03;2.83;;;15.60;74.30;;;;;;4190515;28;20067;-63
2022/01/24 00:49:43;;;;;;;3.15;2.83;;;15.60;74.50;;;;;;4192226;28;20048;-64
2022/01/24 00:54:51;;;;;;;3.22;2.97;;;15.60;74.50;;;;;;4192532;28;20050;-64
2022/01/24 00:57:13;;;;;;;3.10;2.83;;;15.60;74.50;;;;;;4176415;28;20052;-63
2022/01/24 00:59:36;;;;;;;3.42;3.13;;;15.60;74.60;;;;;;4178577;28;20049;-64
2022/01/24 01:01:58;;;;;;;4.85;3.05;;;15.60;74.50;;;;;;4195710;28;20076;-63
2022/01/24 01:04:24;;;;;;;3.10;2.70;;;15.50;74.40;;;;;;4186235;28;20131;-64
2022/01/24 01:06:47;;;;;;;3.22;2.92;;;15.60;74.30;;;;;;4179336;28;20064;-63
2022/01/24 01:19:47;;;;;;;2.80;2.60;;;15.50;74.60;;;;;;4180179;28;20051;-64
2022/01/24 01:22:09;;;;;;;3.20;3.00;;;15.50;74.60;;;;;;4178669;28;20083;-63
2022/01/24 01:24:36;;;;;;;3.00;2.70;;;15.50;74.40;;;;;;4177146;28;20048;-64
2022/01/24 01:27:04;;;;;;;2.75;2.63;;;15.50;74.40;;;;;;4178768;28;20056;-63
2022/01/24 01:29:30;;;;;;;3.17;2.97;;;15.40;74.30;;;;;;4194382;28;20045;-64
2022/01/24 01:32:03;;;;;;;2.85;2.65;;;15.50;74.20;;;;;;4194734;28;20082;-63
2022/01/24 01:40:06;;;;;;;3.83;3.40;;;15.40;75.60;;;;;;4178292;28;20060;-63
2022/01/24 01:53:35;;;;;;;3.40;3.10;;;15.30;74.90;;;;;;4179185;28;20106;-63
2022/01/24 01:55:57;;;;;;;3.42;3.20;;;15.40;74.90;;;;;;4161680;28;20057;-63
2022/01/24 01:58:22;;;;;;;3.60;3.28;;;15.30;75.00;;;;;;4162110;28;20547;-63
2022/01/24 02:00:47;;;;;;;3.42;3.15;;;15.30;74.60;;;;;;4193397;28;20062;-63
2022/01/24 02:03:10;;;;;;;3.55;3.25;;;15.30;74.80;;;;;;4193028;28;20052;-63
2022/01/24 02:05:32;;;;;;;3.30;3.10;;;15.30;74.90;;;;;;4190047;28;20037;-63
2022/01/24 02:07:54;;;;;;;4.32;3.50;;;15.30;75.10;;;;;;4178192;28;20052;-63
2022/01/24 02:10:20;;;;;;;3.58;3.28;;;15.30;75.10;;;;;;4176955;28;20170;-63
2022/01/24 02:12:42;;;;;;;3.92;3.53;;;15.30;75.00;;;;;;4176399;28;20044;-70
2022/01/24 02:15:07;;;;;;;3.58;3.28;;;15.30;75.10;;;;;;4178131;28;20057;-70
2022/01/24 02:17:40;;;;;;;3.72;3.42;;;15.30;75.10;;;;;;4178049;28;20056;-70
2022/01/24 02:20:25;;;;;;;3.92;3.63;;;15.30;75.20;;;;;;4189592;28;20052;-70
2022/01/24 02:23:13;;;;;;;3.97;3.67;;;15.20;75.10;;;;;;4192387;28;20048;-69
2022/01/24 02:25:33;;;;;;;4.13;3.72;;;15.20;75.20;;;;;;4160916;28;20061;-71
2022/01/24 02:27:59;;;;;;;4.28;3.65;;;15.20;75.30;;;;;;4161036;28;20437;-70
2022/01/24 02:30:38;;;;;;;5.28;3.83;;;15.20;75.20;;;;;;4174551;28;20072;-69
2022/01/24 02:33:01;;;;;;;4.05;3.65;;;15.20;75.20;;;;;;4177989;28;20056;-69
2022/01/24 02:35:23;;;;;;;4.20;3.67;;;15.20;75.50;;;;;;4160918;28;20061;-69
2022/01/24 02:37:45;;;;;;;4.82;3.97;;;15.20;75.40;;;;;;4161209;28;20057;-69
2022/01/24 02:40:13;;;;;;;3.83;3.53;;;15.20;75.50;;;;;;4176157;28;20048;-69
2022/01/24 02:53:17;;;;;;;4.13;3.67;;;15.10;75.50;;;;;;4177640;28;20041;-71
2022/01/24 02:55:42;;;;;;;4.10;3.80;;;15.10;75.60;;;;;;4178334;28;20053;-72
2022/01/24 02:58:05;;;;;;;3.85;3.58;;;15.10;75.30;;;;;;4177100;28;20575;-70
2022/01/24 03:00:27;;;;;;;4.25;3.95;;;15.10;75.40;;;;;;4177217;28;20056;-72
2022/01/24 03:02:49;;;;;;;3.97;3.67;;;15.10;75.20;;;;;;4177651;28;20102;-71
2022/01/24 03:05:12;;;;;;;4.47;4.07;;;15.10;75.30;;;;;;4177191;28;20051;-72
2022/01/24 03:07:34;;;;;;;3.92;3.58;;;15.10;75.40;;;;;;4176962;28;20053;-71
2022/01/24 03:09:56;;;;;;;3.78;3.47;;;15.00;75.30;;;;;;4177372;28;20056;-71
2022/01/24 03:12:38;;;;;;;3.83;3.47;;;15.00;75.30;;;;;;4176941;28;20516;-69
2022/01/24 03:15:01;;;;;;;4.00;3.60;;;15.00;75.30;;;;;;4176910;28;20118;-69
2022/01/24 03:17:23;;;;;;;4.82;4.15;;;15.10;75.40;;;;;;4177088;28;20060;-70
2022/01/24 03:19:45;;;;;;;4.63;3.90;;;15.00;75.30;;;;;;4177179;28;20045;-70
2022/01/24 03:22:09;;;;;;;4.28;3.92;;;15.00;75.30;;;;;;4176508;28;20485;-70
2022/01/24 03:24:31;;;;;;;4.35;3.95;;;15.00;75.30;;;;;;4177038;28;20434;-70
2022/01/24 03:26:53;;;;;;;4.43;4.07;;;15.10;75.30;;;;;;4172309;28;20052;-70
2022/01/24 03:29:16;;;;;;;3.97;3.67;;;15.00;75.30;;;;;;4176841;28;20131;-70
2022/01/24 03:31:39;;;;;;;5.40;4.28;;;15.00;75.20;;;;;;4176847;28;20045;-70
2022/01/24 03:34:01;;;;;;;4.63;4.22;;;15.00;75.40;;;;;;4175420;28;20040;-72
2022/01/24 03:36:23;;;;;;;5.25;4.78;;;15.00;75.40;;;;;;4176562;28;20049;-71
2022/01/24 03:38:46;;;;;;;4.50;4.07;;;15.00;75.40;;;;;;4176619;28;20049;-70
2022/01/24 03:41:09;;;;;;;4.90;4.50;;;15.00;75.30;;;;;;4176058;28;20045;-71
2022/01/24 03:43:31;;;;;;;4.97;4.45;;;15.00;75.40;;;;;;4176406;28;20045;-71
2022/01/24 03:46:11;;;;;;;5.00;4.57;;;15.00;75.30;;;;;;4159915;28;20448;-71
2022/01/24 03:48:38;;;;;;;6.25;5.60;;;15.00;75.30;;;;;;4159605;28;20049;-70
2022/01/24 03:51:00;;;;;;;6.35;4.97;;;15.00;75.40;;;;;;4159501;28;20400;-70
2022/01/24 03:53:22;;;;;;;6.95;4.88;;;14.90;75.30;;;;;;4171356;28;20061;-71
2022/01/24 03:55:44;;;;;;;5.57;5.07;;;14.90;75.30;;;;;;4177580;28;20060;-69
2022/01/24 03:58:06;;;;;;;8.15;4.90;;;14.90;75.20;;;;;;4176856;28;20485;-69
2022/01/24 04:00:29;;;;;;;6.45;5.18;;;14.90;75.30;;;;;;4188220;28;20476;-70
2022/01/24 04:02:52;;;;;;;5.78;5.18;;;14.90;75.40;;;;;;4175578;28;20053;-70
2022/01/24 04:05:14;;;;;;;6.75;5.50;;;14.90;75.30;;;;;;4176176;28;20048;-70
2022/01/24 04:07:37;;;;;;;6.20;5.50;;;14.90;75.30;;;;;;4176077;28;20052;-70
2022/01/24 04:10:05;;;;;;;6.35;5.57;;;14.90;75.40;;;;;;4176063;28;20056;-71
2022/01/24 04:12:27;;;;;;;6.30;5.20;;;14.90;75.50;;;;;;4159022;28;20064;-70
2022/01/24 04:15:25;;;;;;;8.77;5.70;;;14.90;75.00;;;;;;4164909;28;20049;-71
2022/01/24 04:17:47;;;;;;;5.70;5.10;;;14.90;75.20;;;;;;4176079;28;20068;-72
2022/01/24 04:22:53;;;;;;;6.25;5.15;;;15.00;76.30;;;;;;4176032;28;20060;-70
2022/01/24 04:25:17;;;;;;;6.60;5.53;;;15.00;76.30;;;;;;4175945;28;20040;-70
2022/01/24 04:27:39;;;;;;;5.95;5.35;;;15.10;76.00;;;;;;4176634;28;20500;-70
2022/01/24 04:30:01;;;;;;;6.30;5.38;;;15.20;75.70;;;;;;4176315;28;20049;-69
2022/01/24 04:32:24;;;;;;;7.40;5.80;;;15.20;76.40;;;;;;4185270;28;20052;-69
2022/01/24 04:34:46;;;;;;;7.88;5.80;;;15.30;75.40;;;;;;4192534;28;20042;-70
2022/01/24 04:37:09;;;;;;;6.80;6.00;;;15.30;75.20;;;;;;4192713;28;20485;-69
2022/01/24 04:39:31;;;;;;;6.63;5.97;;;15.30;74.90;;;;;;4192845;28;20127;-69
2022/01/24 04:41:56;;;;;;;6.88;6.05;;;15.40;74.80;;;;;;4190482;28;20071;-69
2022/01/24 04:44:42;;;;;;;7.38;5.85;;;15.40;74.70;;;;;;4186293;28;20099;-69
2022/01/24 04:47:14;;;;;;;7.57;6.43;;;15.40;74.50;;;;;;4175902;28;20049;-69
2022/01/24 04:52:24;;;;;;;6.95;6.07;;;15.40;74.30;;;;;;4176116;28;20515;-69
2022/01/24 04:54:46;;;;;;;8.32;6.20;;;15.40;74.30;;;;;;4175735;28;20055;-69
2022/01/24 04:57:10;;;;;;;8.68;6.03;;;15.40;74.70;;;;;;4175874;28;20406;-69
2022/01/24 04:59:32;;;;;;;9.25;6.47;;;15.50;74.70;;;;;;4184701;28;20135;-69
2022/01/24 05:01:54;;;;;;;7.68;6.45;;;15.50;74.50;;;;;;4192621;28;20126;-69
2022/01/24 05:04:16;;;;;;;7.03;6.20;;;15.50;74.30;;;;;;4190925;28;20542;-69
2022/01/24 05:06:38;;;;;;;6.97;6.28;;;15.50;74.20;;;;;;4192709;28;20048;-70
2022/01/24 05:09:04;;;;;;;8.30;6.38;;;15.50;74.20;;;;;;4192270;28;20056;-69
2022/01/24 05:11:35;;;;;;;8.75;6.63;;;15.60;74.20;;;;;;4192279;28;20131;-69
2022/01/24 05:24:53;;;;;;;9.07;6.65;;;15.70;73.50;;;;;;4175573;28;20522;-70
2022/01/24 05:27:15;;;;;;;7.85;7.05;;;15.70;73.40;;;;;;4179076;28;20040;-70
2022/01/24 05:29:37;;;;;;;8.13;6.90;;;15.70;73.50;;;;;;4178517;28;20461;-69
2022/01/24 05:32:00;;;;;;;9.52;7.43;;;15.60;73.40;;;;;;4175532;28;20135;-70
2022/01/24 05:34:22;;;;;;;8.73;7.43;;;15.60;73.50;;;;;;4175785;28;20140;-69
2022/01/24 05:36:44;;;;;;;10.13;7.88;;;15.60;73.40;;;;;;4175315;28;20053;-69
2022/01/24 05:39:06;;;;;;;10.35;7.60;;;15.60;73.40;;;;;;4175812;28;20049;-69
2022/01/24 05:41:30;;;;;;;9.00;7.88;;;15.60;73.40;;;;;;4174201;28;20049;-69
2022/01/24 05:43:52;;;;;;;9.48;7.80;;;15.50;73.40;;;;;;4171614;28;20087;-69
2022/01/24 05:46:14;;;;;;;11.80;8.85;;;15.50;73.60;;;;;;4177194;28;20143;-69
2022/01/24 05:48:36;;;;;;;9.63;8.27;;;15.50;73.70;;;;;;4178321;28;20147;-69
2022/01/24 05:50:58;;;;;;;9.02;7.53;;;15.50;73.60;;;;;;4178987;28;20060;-70
2022/01/24 05:53:20;;;;;;;9.55;7.90;;;15.50;74.60;;;;;;4178210;28;20091;-61
2022/01/24 05:55:42;;;;;;;8.80;7.90;;;15.50;74.10;;;;;;4179614;28;20056;-63
2022/01/24 05:58:06;;;;;;;9.75;8.23;;;15.50;74.20;;;;;;4194271;28;20048;-63
2022/01/24 06:00:28;;;;;;;10.75;9.20;;;15.50;74.00;;;;;;4194636;28;20041;-63
2022/01/24 06:02:50;;;;;;;12.35;8.98;;;15.60;73.70;;;;;;4185377;28;20069;-63
2022/01/24 06:05:12;;;;;;;9.40;8.40;;;15.60;73.60;;;;;;4177649;28;20126;-62
2022/01/24 06:07:34;;;;;;;9.90;8.32;;;15.70;73.40;;;;;;4177704;28;20138;-62
2022/01/24 06:09:56;;;;;;;11.02;8.50;;;15.70;73.40;;;;;;4177834;28;20068;-63
2022/01/24 06:12:18;;;;;;;12.35;8.90;;;15.70;73.30;;;;;;4183968;28;20052;-63
2022/01/24 06:14:42;;;;;;;10.80;9.02;;;15.70;73.10;;;;;;4191225;28;20064;-63
2022/01/24 06:17:04;;;;;;;10.80;8.95;;;15.70;73.00;;;;;;4178020;28;20106;-63
2022/01/24 06:19:26;;;;;;;11.35;9.30;;;15.70;73.00;;;;;;4178194;28;20049;-62
2022/01/24 06:21:49;;;;;;;9.95;8.98;;;15.70;73.00;;;;;;4180396;28;20054;-62
2022/01/24 06:24:11;;;;;;;10.98;9.32;;;15.70;73.00;;;;;;4194680;28;24949;-63
2022/01/24 06:26:48;;;;;;;14.23;9.82;;;15.70;73.20;;;;;;4194384;28;20055;-63
2022/01/24 06:29:10;;;;;;;11.25;8.88;;;15.60;73.20;;;;;;4189296;28;20466;-62
2022/01/24 06:31:34;;;;;;;13.25;8.77;;;15.60;73.30;;;;;;4177738;28;20452;-63
2022/01/24 06:33:55;;;;;;;12.82;9.93;;;15.60;73.30;;;;;;4178034;28;20056;-62
2022/01/24 06:36:18;;;;;;;11.73;9.70;;;15.60;73.40;;;;;;4185518;28;20511;-63
2022/01/24 06:38:40;;;;;;;12.07;9.73;;;15.60;73.40;;;;;;4194169;28;20118;-63
2022/01/24 06:41:02;;;;;;;11.85;9.57;;;15.60;73.40;;;;;;4188277;28;20481;-62
2022/01/24 06:43:24;;;;;;;10.88;9.00;;;15.60;73.50;;;;;;4177483;28;20052;-63
2022/01/24 06:45:46;;;;;;;12.82;9.65;;;15.50;73.60;;;;;;4176918;28;20095;-62
2022/01/24 06:48:10;;;;;;;12.32;9.70;;;15.50;73.90;;;;;;4177403;28;20455;-62
2022/01/24 06:50:31;;;;;;;9.85;8.77;;;15.60;73.90;;;;;;4177598;28;20436;-62
2022/01/24 06:52:53;;;;;;;12.20;9.50;;;15.70;73.70;;;;;;4177470;28;20080;-63
2022/01/24 06:55:16;;;;;;;12.18;9.80;;;15.70;73.20;;;;;;4177570;28;20481;-62
2022/01/24 06:57:38;;;;;;;11.55;8.90;;;15.80;72.90;;;;;;4176927;28;20060;-62
2022/01/24 07:00:00;;;;;;;12.88;9.93;;;15.80;72.70;;;;;;4180663;28;20049;-63
2022/01/24 07:02:22;;;;;;;14.30;9.63;;;15.80;72.50;;;;;;4188939;28;20048;-62
2022/01/24 07:04:46;;;;;;;12.60;9.57;;;15.90;72.60;;;;;;4175915;28;20492;-62
2022/01/24 07:07:12;;;;;;;10.52;8.27;;;15.80;72.50;;;;;;4177432;28;20053;-61
2022/01/24 07:09:34;;;;;;;12.18;9.93;;;15.90;73.20;;;;;;4177322;28;20098;-61
2022/01/24 07:11:56;;;;;;;10.77;8.98;;;15.80;73.90;;;;;;4176619;28;20041;-62
2022/01/24 07:14:18;;;;;;;11.40;9.00;;;15.90;73.60;;;;;;4160908;28;20049;-62
2022/01/24 07:17:02;;;;;;;12.50;8.90;;;15.80;73.70;;;;;;4176984;28;20056;-61
2022/01/24 07:19:22;;;;;;;11.60;9.63;;;15.80;73.70;;;;;;4176772;28;20056;-62
2022/01/24 07:21:46;;;;;;;12.68;9.27;;;15.80;73.90;;;;;;4176570;28;20049;-62
2022/01/24 07:24:08;;;;;;;11.20;8.88;;;15.80;74.00;;;;;;4176407;28;20118;-62
2022/01/24 07:26:30;;;;;;;12.45;9.15;;;15.90;74.30;;;;;;4160471;28;20057;-61
2022/01/24 07:28:52;;;;;;;14.00;9.55;;;15.80;74.20;;;;;;4177193;28;20044;-61
2022/01/24 07:31:14;;;;;;;10.27;9.18;;;15.80;74.50;;;;;;4175691;28;20548;-61
2022/01/24 07:33:36;;;;;;;10.05;8.45;;;15.80;74.60;;;;;;4176548;28;20110;-62
2022/01/24 07:35:58;;;;;;;10.85;7.43;;;15.80;74.80;;;;;;4176821;28;20053;-61
2022/01/24 07:38:21;;;;;;;11.35;7.85;;;15.70;74.70;;;;;;4176764;28;20052;-61
2022/01/24 07:40:47;;;;;;;9.90;8.13;;;15.70;75.20;;;;;;4173511;28;20052;-61
2022/01/24 07:43:12;;;;;;;10.60;8.13;;;15.70;75.10;;;;;;4173920;28;20049;-61
2022/01/24 07:45:34;;;;;;;12.82;8.88;;;15.60;75.00;;;;;;4172787;28;20630;-61
2022/01/24 07:47:56;;;;;;;11.73;8.77;;;15.60;75.10;;;;;;4173927;28;20147;-61
2022/01/24 07:50:20;;;;;;;12.48;8.90;;;15.60;75.60;;;;;;4174692;28;20140;-61
2022/01/24 07:52:42;;;;;;;12.35;8.40;;;15.60;75.70;;;;;;4173826;28;20425;-62
2022/01/24 07:55:07;;;;;;;11.60;9.70;;;15.70;75.40;;;;;;4173837;28;20057;-61
2022/01/24 07:57:28;;;;;;;11.18;9.15;;;15.70;75.00;;;;;;4174194;28;20049;-61
2022/01/24 07:59:50;;;;;;;12.98;8.70;;;15.70;74.80;;;;;;4173859;28;20145;-61
2022/01/24 08:02:12;;;;;;;10.52;8.95;;;15.70;75.00;;;;;;4174219;28;20053;-61
2022/01/24 08:04:35;;;;;;;10.90;8.73;;;15.70;74.70;;;;;;4174998;28;20048;-62
2022/01/24 08:06:57;;;;;;;11.10;8.73;;;15.70;74.60;;;;;;4176225;28;20049;-60
2022/01/24 08:09:19;;;;;;;8.63;7.43;;;15.70;74.60;;;;;;4174277;28;20420;-59
2022/01/24 08:11:43;;;;;;;13.73;9.25;;;15.70;75.30;;;;;;4183815;28;20553;-59
2022/01/24 08:14:07;;;;;;;14.02;9.07;;;15.70;74.30;;;;;;4172263;28;20076;-60
2022/01/24 08:16:29;;;;;;;12.20;9.05;;;15.70;74.20;;;;;;4176153;28;20541;-60
2022/01/24 08:18:57;;;;;;;12.35;9.07;;;15.70;74.30;;;;;;4175831;28;20102;-60
2022/01/24 08:21:20;;;;;;;11.10;8.65;;;15.60;74.40;;;;;;4176106;28;20059;-60
2022/01/24 08:23:42;;;;;;;21.70;8.70;;;15.60;74.50;;;;;;4176221;28;20485;-61
2022/01/24 08:26:05;;;;;;;10.32;8.80;;;15.60;74.60;;;;;;4176093;28;20131;-60
2022/01/24 08:28:28;;;;;;;13.73;8.82;;;15.50;74.50;;;;;;4174908;28;20068;-60
2022/01/24 08:30:52;;;;;;;9.52;8.10;;;15.50;74.50;;;;;;4175851;28;20057;-61
2022/01/24 08:33:14;;;;;;;12.68;9.82;;;15.50;75.00;;;;;;4176683;28;20049;-61
2022/01/24 08:35:36;;;;;;;13.45;9.15;;;15.50;75.40;;;;;;4176032;28;20044;-61
2022/01/24 08:37:58;;;;;;;12.93;8.65;;;15.50;75.30;;;;;;4175940;28;20045;-60
2022/01/24 08:40:25;;;;;;;10.57;7.47;;;15.60;75.00;;;;;;4179809;28;20071;-60
2022/01/24 08:42:56;;;;;;;11.00;8.63;;;15.60;74.60;;;;;;4174546;28;20083;-61
2022/01/24 08:47:59;;;;;;;13.27;8.90;;;15.70;74.30;;;;;;4173157;28;20110;-60
2022/01/24 08:50:26;;;;;;;12.02;9.07;;;15.70;75.00;;;;;;4173421;28;20068;-60
2022/01/24 08:52:48;;;;;;;10.52;9.05;;;15.60;74.20;;;;;;4173431;28;20404;-60
2022/01/24 08:55:10;;;;;;;15.32;9.10;;;15.60;74.10;;;;;;4172899;28;20179;-62
2022/01/24 08:57:32;;;;;;;13.57;9.65;;;15.60;74.00;;;;;;4172015;28;20053;-60
2022/01/24 08:59:55;;;;;;;13.32;9.35;;;15.60;74.20;;;;;;4173173;28;20077;-61
2022/01/24 09:02:18;;;;;;;15.25;9.32;;;15.60;74.00;;;;;;4172471;28;20045;-61
2022/01/24 09:04:40;;;;;;;15.40;9.98;;;15.50;74.10;;;;;;4173289;28;20049;-60
2022/01/24 09:07:04;;;;;;;14.68;10.13;;;15.50;74.30;;;;;;4172499;28;20049;-60
2022/01/24 09:09:26;;;;;;;14.52;10.00;;;15.50;74.30;;;;;;4173533;28;20457;-60
2022/01/24 09:11:48;;;;;;;15.98;10.13;;;15.50;74.50;;;;;;4172509;28;20052;-60
2022/01/24 09:14:10;;;;;;;16.65;10.48;;;15.50;74.40;;;;;;4187573;28;20452;-60
2022/01/24 09:16:33;;;;;;;17.23;10.48;;;15.50;74.50;;;;;;4172858;28;20056;-60
2022/01/24 09:18:57;;;;;;;13.52;10.90;;;15.50;74.70;;;;;;4172374;28;20171;-59
2022/01/24 09:21:20;;;;;;;13.52;10.45;;;15.50;74.90;;;;;;4176237;28;20053;-60
2022/01/24 09:23:42;;;;;;;15.48;9.63;;;15.50;74.80;;;;;;4175938;28;20051;-60
2022/01/24 09:26:05;;;;;;;15.52;10.98;;;15.50;74.60;;;;;;4176277;28;20102;-60
2022/01/24 09:28:27;;;;;;;15.43;11.15;;;15.50;74.60;;;;;;4176500;28;20210;-60
2022/01/24 09:30:50;;;;;;;18.85;12.10;;;15.50;74.50;;;;;;4176428;28;20060;-60
2022/01/24 09:33:13;;;;;;;21.27;13.02;;;15.60;74.50;;;;;;4174214;28;20084;-60
2022/01/24 09:35:36;;;;;;;19.63;12.30;;;15.50;74.50;;;;;;4176023;28;20405;-60
2022/01/24 09:37:58;;;;;;;23.65;13.63;;;15.50;74.40;;;;;;4175877;28;20056;-61
2022/01/24 09:40:22;;;;;;;18.13;13.68;;;15.50;74.50;;;;;;4176191;28;20067;-60
2022/01/24 09:42:46;;;;;;;22.02;14.93;;;15.50;74.60;;;;;;4175754;28;20481;-60
2022/01/24 09:45:10;;;;;;;21.20;14.10;;;15.50;74.60;;;;;;4176241;28;20053;-60
2022/01/24 09:47:32;;;;;;;19.63;13.50;;;15.40;74.70;;;;;;4176164;28;20052;-60
2022/01/24 09:49:54;;;;;;;21.60;15.15;;;15.50;74.90;;;;;;4176176;28;20049;-61
2022/01/24 09:52:18;;;;;;;22.25;15.63;;;15.50;74.80;;;;;;4176112;28;20053;-60
2022/01/24 09:54:40;;;;;;;23.42;14.65;;;15.50;74.60;;;;;;4175974;28;20144;-61
2022/01/24 09:57:02;;;;;;;24.73;14.93;;;15.50;74.70;;;;;;4175914;28;20347;-60
2022/01/24 09:59:24;;;;;;;20.27;14.77;;;15.50;74.70;;;;;;4176116;28;20056;-60
2022/01/24 10:01:46;;;;;;;20.13;14.50;;;15.50;74.60;;;;;;4175903;28;20349;-60
2022/01/24 10:04:14;;;;;;;23.88;15.57;;;15.50;74.40;;;;;;4174944;28;20380;-60
2022/01/24 10:06:57;;;;;;;23.55;15.65;;;15.50;74.40;;;;;;4175299;28;20048;-60
2022/01/24 10:09:27;;;;;;;26.42;16.33;;;15.50;74.30;;;;;;4175272;28;20045;-60
2022/01/24 10:12:04;;;;;;;24.15;15.85;;;15.40;74.60;;;;;;4174805;28;20045;-60
2022/01/24 10:17:16;;;;;;;25.58;15.60;;;15.40;75.20;;;;;;4174934;28;20373;-60
2022/01/24 10:19:38;;;;;;;19.35;14.43;;;15.40;75.20;;;;;;4175096;28;20048;-60
2022/01/24 10:22:03;;;;;;;24.67;15.43;;;15.50;75.20;;;;;;4175239;28;20048;-60
2022/01/24 10:24:36;;;;;;;27.58;15.93;;;15.50;74.70;;;;;;4175057;28;20169;-60
2022/01/24 10:27:10;;;;;;;22.60;16.23;;;15.50;74.30;;;;;;4174664;28;20057;-60
2022/01/24 10:29:32;;;;;;;22.63;15.25;;;15.50;74.40;;;;;;4173616;28;20381;-59
2022/01/24 10:31:55;;;;;;;27.63;15.40;;;15.50;74.60;;;;;;4174869;28;20051;-59
2022/01/24 10:34:28;;;;;;;26.83;15.30;;;15.50;74.80;;;;;;4175155;28;20053;-60
2022/01/24 10:36:52;;;;;;;25.65;15.25;;;15.50;74.70;;;;;;4163832;28;20132;-59
2022/01/24 10:39:27;;;;;;;31.75;17.13;;;15.40;74.70;;;;;;4174376;28;20520;-60
2022/01/24 10:42:25;;;;;;;21.35;15.05;;;15.40;74.60;;;;;;4159203;28;20089;-60
2022/01/24 10:44:47;;;;;;;28.02;16.63;;;15.40;74.70;;;;;;4175110;28;20530;-59
2022/01/24 10:47:18;;;;;;;23.45;15.98;;;15.30;75.20;;;;;;4175164;28;20143;-60
2022/01/24 10:49:41;;;;;;;28.17;17.70;;;15.30;75.20;;;;;;4175346;28;20381;-60
2022/01/24 10:52:10;;;;;;;32.00;17.50;;;15.40;75.60;;;;;;4175162;28;20048;-60
2022/01/24 10:54:32;;;;;;;30.00;17.27;;;15.40;75.60;;;;;;4174641;28;20056;-59
2022/01/24 10:56:55;;;;;;;33.80;18.08;;;15.40;75.60;;;;;;4174441;28;20080;-60
2022/01/24 10:59:21;;;;;;;34.42;18.75;;;15.40;75.60;;;;;;4175076;28;20049;-60
2022/01/24 11:01:44;;;;;;;30.05;18.45;;;15.40;76.50;;;;;;4174390;28;20084;-60
2022/01/24 11:04:10;;;;;;;35.13;19.80;;;15.40;75.80;;;;;;4174391;28;20219;-60
2022/01/24 11:06:35;;;;;;;32.83;18.80;;;15.50;75.60;;;;;;4175577;28;20051;-60
2022/01/24 11:09:22;;;;;;;34.67;19.05;;;15.60;75.40;;;;;;4174709;28;20136;-60
2022/01/24 11:11:44;;;;;;;38.72;21.77;;;15.60;74.60;;;;;;4174070;28;20055;-60
2022/01/24 11:14:09;;;;;;;40.90;21.77;;;15.60;74.80;;;;;;4174058;28;20128;-60
2022/01/24 11:16:31;;;;;;;34.50;21.02;;;15.60;74.60;;;;;;4174303;28;20044;-60
2022/01/24 11:18:53;;;;;;;37.80;21.73;;;15.60;74.60;;;;;;4174316;28;20493;-60
2022/01/24 11:21:16;;;;;;;38.25;21.52;;;15.60;74.60;;;;;;4174934;28;20389;-59
2022/01/24 11:23:40;;;;;;;37.95;22.80;;;15.60;74.60;;;;;;4174444;28;20047;-60
2022/01/24 11:26:04;;;;;;;37.78;22.65;;;15.60;74.70;;;;;;4174611;28;20045;-59
2022/01/24 11:28:26;;;;;;;35.88;22.77;;;15.50;74.60;;;;;;4174568;28;20049;-60
2022/01/24 11:31:02;;;;;;;35.88;21.85;;;15.50;74.70;;;;;;4173878;28;20049;-61
2022/01/24 11:33:34;;;;;;;41.15;22.75;;;15.50;74.70;;;;;;4174724;28;20118;-60
2022/01/24 11:36:02;;;;;;;40.38;23.50;;;15.50;74.50;;;;;;4174108;28;20059;-60
2022/01/24 11:38:29;;;;;;;36.60;21.60;;;15.40;74.80;;;;;;4173913;28;20051;-61
2022/01/24 11:40:57;;;;;;;37.35;23.85;;;15.40;75.00;;;;;;4174489;28;20053;-60
2022/01/24 11:43:27;;;;;;;40.22;22.95;;;15.40;75.30;;;;;;4174301;28;20079;-60
2022/01/24 11:46:00;;;;;;;39.45;23.98;;;15.30;75.00;;;;;;4174269;28;20448;-60
2022/01/24 11:48:24;;;;;;;37.72;23.35;;;15.30;75.40;;;;;;4173542;28;20064;-60
2022/01/24 11:50:57;;;;;;;39.97;23.35;;;15.30;75.40;;;;;;4172635;28;20512;-60
2022/01/24 11:53:21;;;;;;;42.00;24.42;;;15.30;75.20;;;;;;4174021;28;20144;-60
2022/01/24 11:55:43;;;;;;;41.90;23.30;;;15.20;75.40;;;;;;4173685;28;20119;-60
2022/01/24 11:58:07;;;;;;;41.60;24.20;;;15.20;75.50;;;;;;4174387;28;20552;-61
2022/01/24 12:00:44;;;;;;;41.20;24.27;;;15.20;75.70;;;;;;4174030;28;20076;-60
2022/01/24 12:03:17;;;;;;;44.15;25.80;;;15.20;75.70;;;;;;4173600;28;20048;-61
2022/01/24 12:05:44;;;;;;;43.53;26.85;;;15.20;75.50;;;;;;4173633;28;20044;-61
2022/01/24 12:08:31;;;;;;;43.72;26.00;;;15.10;75.70;;;;;;4173981;28;20493;-60
2022/01/24 12:10:58;;;;;;;46.17;25.88;;;15.10;75.60;;;;;;4173711;28;20091;-61
2022/01/24 12:13:27;;;;;;;51.67;30.23;;;15.10;75.90;;;;;;4173151;28;20053;-61
2022/01/24 12:15:55;;;;;;;49.88;29.25;;;15.10;76.00;;;;;;4173659;28;20052;-61
2022/01/24 12:18:23;;;;;;;48.47;30.10;;;15.10;75.80;;;;;;4173549;28;20053;-60
2022/01/24 12:20:52;;;;;;;45.00;26.52;;;15.10;76.00;;;;;;4172175;28;20484;-60
2022/01/24 12:23:39;;;;;;;46.45;27.42;;;15.10;76.40;;;;;;4173810;28;20052;-62
2022/01/24 12:26:29;;;;;;;38.42;25.17;;;15.10;76.60;;;;;;4173053;28;20114;-62
2022/01/24 12:28:57;;;;;;;40.92;23.52;;;15.20;76.70;;;;;;4172891;28;20100;-62
2022/01/24 12:31:25;;;;;;;35.88;22.67;;;15.20;76.30;;;;;;4173222;28;20050;-62
2022/01/24 12:33:59;;;;;;;35.30;23.65;;;15.20;75.90;;;;;;4173357;28;20037;-62
2022/01/24 12:36:49;;;;;;;37.05;22.08;;;15.20;75.90;;;;;;4173197;28;20103;-62
2022/01/24 12:39:14;;;;;;;36.97;23.80;;;15.20;75.70;;;;;;4172913;28;20056;-62
2022/01/24 12:41:43;;;;;;;38.17;24.17;;;15.20;76.00;;;;;;4174268;28;20053;-62
2022/01/24 12:46:16;;;;;;;40.65;23.70;;;15.20;76.90;;;;;;4173209;28;20075;-62
2022/01/24 12:46:51;;;;;;;38.33;25.45;;;15.20;76.20;;;;;;4172963;28;20044;-62
2022/01/24 12:49:13;;;;;;;41.25;24.33;;;15.30;76.00;;;;;;4171801;28;20484;-62
2022/01/24 12:51:38;;;;;;;39.40;23.40;;;15.30;75.70;;;;;;4173290;28;20053;-62
2022/01/24 12:54:02;;;;;;;39.03;23.90;;;15.30;75.60;;;;;;4173166;28;20043;-62
2022/01/24 12:56:26;;;;;;;41.53;25.02;;;15.30;75.40;;;;;;4176181;28;20099;-62
2022/01/24 12:58:50;;;;;;;41.38;26.33;;;15.30;75.30;;;;;;4175717;28;20068;-61
2022/01/24 13:01:21;;;;;;;39.25;24.42;;;15.30;75.30;;;;;;4176837;28;20060;-62
2022/01/24 13:03:52;;;;;;;35.20;22.27;;;15.30;75.00;;;;;;4175928;28;20071;-62
2022/01/24 13:06:15;;;;;;;;;;;15.30;75.30;;;;;;4176185;28;20071;-62
2022/01/24 13:08:39;;;;;;;38.42;24.42;;;15.30;76.30;;;;;;4175724;28;19998;-61
2022/01/24 13:11:02;;;;;;;40.28;25.25;;;15.30;75.70;;;;;;4176412;28;20502;-62
2022/01/24 13:13:23;;;;;;;40.40;25.55;;;15.20;75.70;;;;;;4176279;28;20076;-63
2022/01/24 13:21:16;;;;;;;44.33;27.17;;;15.20;75.90;;;;;;4176321;28;20045;-61
2022/01/24 13:23:43;;;;;;;38.95;25.27;;;15.20;76.10;;;;;;4176136;28;20801;-62
2022/01/24 13:26:06;;;;;;;42.47;27.35;;;15.10;76.10;;;;;;4176058;28;20472;-61
2022/01/24 13:28:29;;;;;;;46.65;27.77;;;15.10;76.20;;;;;;4175565;28;20489;-61
2022/01/24 13:30:58;;;;;;;43.72;25.95;;;15.10;76.30;;;;;;4176239;28;20126;-61
2022/01/24 13:33:24;;;;;;;37.95;25.73;;;15.10;76.40;;;;;;4176301;28;20140;-61
2022/01/24 13:35:48;;;;;;;39.35;24.40;;;15.10;76.40;;;;;;4175797;28;20473;-61
2022/01/24 13:38:12;;;;;;;42.58;28.33;;;15.10;76.30;;;;;;4175794;28;20053;-61
2022/01/24 13:40:39;;;;;;;42.20;26.75;;;15.20;76.10;;;;;;4176422;28;20142;-61
2022/01/24 13:43:02;;;;;;;44.03;27.85;;;15.20;76.00;;;;;;4176004;28;20060;-62
2022/01/24 13:45:25;;;;;;;45.08;27.95;;;15.20;75.90;;;;;;4175943;28;20053;-61
2022/01/24 13:47:56;;;;;;;44.53;28.83;;;15.20;75.90;;;;;;4175467;28;20077;-61